DW4937 Weather Reports


Display with metric or nautical units.
time (UTC)temp
F
wind
direction
speed
MPH
gust
MPH
rain 1hr
in
rain 24hr
in
rain mn
in
humidity
%
barometer
mb
20180722064910 68 136 0.0 0.0 0.00 0.14 0.00 74 1006.3
20180722064411 68 136 0.0 0.0 0.00 0.14 0.00 74 1006.3
20180722063909 68 136 0.0 0.0 0.00 0.14 0.00 73 1006.3
20180722063410 68 136 0.0 0.0 0.00 0.14 0.00 73 1006.2
20180722062907 68 136 0.0 0.0 0.00 0.14 0.00 73 1006.3
20180722062407 68 136 0.0 0.0 0.00 0.14 0.00 72 1006.4
20180722061909 68 136 0.0 0.0 0.00 0.14 0.00 72 1006.4
20180722061408 68 136 0.0 0.0 0.00 0.14 0.00 72 1006.6
20180722060908 68 136 0.0 0.0 0.00 0.14 0.00 73 1006.5
20180722060407 68 136 0.0 0.0 0.00 0.14 0.00 73 1006.5
20180722055908 68 136 0.0 0.0 0.00 0.14 0.00 73 1006.5
20180722055406 69 136 0.0 0.0 0.00 0.14 0.00 74 1006.6
20180722054906 69 136 0.0 0.0 0.00 0.14 0.00 74 1006.5
20180722054405 69 136 0.0 0.0 0.00 0.14 0.00 74 1006.5
20180722053906 69 136 0.0 0.0 0.00 0.14 0.00 73 1006.5
20180722053404 69 136 0.0 0.0 0.00 0.14 0.00 73 1006.4
20180722052906 69 136 0.0 0.0 0.00 0.14 0.00 72 1006.4
20180722052406 69 136 0.0 0.0 0.00 0.14 0.00 71 1006.4
20180722051906 69 136 0.0 0.0 0.00 0.14 0.00 71 1006.5
20180722051405 69 134 0.0 0.0 0.00 0.14 0.00 71 1006.6
20180722050905 69 134 0.0 0.0 0.00 0.14 0.00 71 1006.6
20180722050406 69 134 0.0 0.0 0.00 0.14 0.00 71 1006.5
20180722045904 69 134 0.0 0.0 0.00 0.14 0.00 71 1006.6
20180722045404 69 134 0.0 0.0 0.00 0.14 0.00 71 1006.6
20180722044900 69 134 0.0 0.0 0.00 0.14 0.00 71 1006.6
20180722044401 69 134 0.0 0.0 0.00 0.14 0.00 71 1006.7
20180722043901 69 134 0.0 0.0 0.00 0.14 0.00 71 1006.6
20180722043400 69 134 0.0 0.0 0.00 0.14 0.00 70 1006.7
20180722042902 69 136 0.0 0.0 0.00 0.14 0.00 70 1006.7
20180722042401 69 136 0.0 0.0 0.00 0.14 0.00 70 1006.8
20180722041902 69 136 0.0 0.0 0.00 0.14 0.00 70 1006.8
20180722041402 69 137 0.0 0.0 0.00 0.14 0.00 69 1006.7
20180722040858 69 136 0.0 0.0 0.00 0.14 0.00 69 1006.7
20180722040358 69 136 0.0 0.0 0.00 0.14 0.00 69 1006.6
20180722035857 69 136 0.0 0.0 0.00 0.14 0.14 68 1006.6
20180722035359 69 138 0.0 0.0 0.00 0.14 0.14 67 1006.7
20180722034858 69 141 0.0 0.0 0.00 0.14 0.14 67 1006.7
20180722034358 69 150 0.0 0.0 0.00 0.14 0.14 66 1006.8
20180722033858 69 150 0.0 0.0 0.00 0.14 0.14 66 1006.8
20180722033358 70 150 0.0 0.0 0.00 0.14 0.14 66 1006.8
20180722032857 70 159 0.0 0.0 0.00 0.14 0.14 66 1006.8
20180722032359 70 159 0.0 0.0 0.00 0.14 0.14 66 1006.8
20180722031857 70 159 0.0 0.0 0.00 0.14 0.14 66 1006.8
20180722031358 70 159 0.0 0.0 0.01 0.14 0.14 66 1006.9
20180722030858 70 159 0.0 0.0 0.02 0.14 0.14 66 1006.9
20180722030357 70 159 0.0 0.0 0.05 0.14 0.14 66 1006.9
20180722025857 70 159 0.0 0.0 0.09 0.14 0.14 66 1006.9
20180722025359 70 159 0.0 0.0 0.13 0.14 0.14 66 1006.9
20180722024857 70 159 0.0 0.0 0.14 0.14 0.14 67 1007.0
20180722024357 70 159 0.0 0.0 0.14 0.14 0.14 67 1006.9
20180722023857 70 159 0.0 0.0 0.14 0.14 0.14 67 1006.9
20180722023359 70 159 0.0 0.0 0.14 0.14 0.14 67 1006.9
20180722022857 71 159 0.0 0.0 0.14 0.14 0.14 68 1007.0
20180722022357 71 159 0.0 0.0 0.14 0.14 0.14 69 1007.1
20180722021857 71 159 0.0 0.0 0.14 0.14 0.14 70 1007.1
20180722021358 71 159 0.0 0.0 0.13 0.13 0.13 72 1007.2
20180722020857 71 159 0.0 0.0 0.12 0.12 0.12 74 1007.2
20180722020357 72 162 0.0 4.0 0.09 0.09 0.10 74 1007.2
20180722015854 73 157 0.0 4.0 0.04 0.04 0.05 76 1007.3
20180722015353 73 176 0.0 4.0 0.00 0.00 0.00 77 1007.4
20180722014849 74 215 0.0 4.0 0.00 0.00 0.00 77 1007.5
20180722014348 74 161 0.0 0.0 0.00 0.00 0.00 76 1007.4
20180722013849 74 42 0.0 0.0 0.00 0.00 0.00 76 1007.0
20180722013348 74 42 0.0 0.0 0.00 0.00 0.00 75 1006.6
20180722012849 74 42 0.0 0.0 0.00 0.00 0.00 75 1006.6
20180722012347 74 42 0.0 0.0 0.00 0.00 0.00 74 1006.7
20180722011847 74 42 0.0 0.0 0.00 0.00 0.00 74 1006.7
20180722011345 74 42 0.0 0.0 0.00 0.00 0.00 74 1006.7
20180722010843 74 42 0.0 0.0 0.00 0.00 0.00 75 1006.8
20180722010343 74 42 0.0 0.0 0.00 0.00 0.00 75 1006.7
20180722005844 74 42 0.0 0.0 0.00 0.00 0.00 75 1006.8
20180722005341 74 43 0.0 0.0 0.00 0.00 0.00 75 1006.8
20180722004839 74 42 0.0 0.0 0.00 0.00 0.00 76 1006.7
20180722004340 74 46 0.0 0.0 0.00 0.00 0.00 76 1006.6
20180722003839 74 56 0.0 0.0 0.00 0.00 0.00 77 1006.6
20180722003340 74 56 0.0 0.0 0.00 0.00 0.00 77 1006.7
20180722002839 74 56 0.0 0.0 0.00 0.00 0.00 77 1006.7
20180722002341 74 56 0.0 0.0 0.00 0.00 0.00 77 1006.7
20180722001839 74 56 0.0 0.0 0.00 0.00 0.00 78 1006.7
20180722001338 75 56 0.0 0.0 0.00 0.00 0.00 78 1006.8
20180722000837 75 56 0.0 0.0 0.00 0.00 0.00 78 1006.7
20180722000338 75 57 0.0 0.0 0.00 0.00 0.00 78 1006.8
20180721235839 75 61 0.0 0.0 0.00 0.00 0.00 78 1006.8
20180721235338 75 61 0.0 0.0 0.00 0.00 0.00 78 1006.8
20180721234839 75 9 0.0 0.0 0.00 0.00 0.00 78 1006.9
20180721234338 75 9 0.0 0.0 0.00 0.00 0.00 78 1006.8
20180721233837 76 5 0.0 0.0 0.00 0.00 0.00 78 1006.8
20180721233337 76 9 0.0 0.0 0.00 0.00 0.00 78 1006.8
20180721232837 76 9 0.0 3.0 0.00 0.00 0.00 78 1006.8
20180721232335 76 9 0.0 3.0 0.00 0.00 0.00 78 1006.8
20180721231835 77 5 0.0 3.0 0.00 0.00 0.00 78 1006.8
20180721231335 77 27 0.0 3.0 0.00 0.00 0.00 78 1006.7
20180721230833 77 23 0.0 2.0 0.00 0.00 0.00 78 1006.6
20180721230334 77 128 0.0 0.0 0.00 0.00 0.00 77 1006.6
20180721225831 77 156 0.0 0.0 0.00 0.00 0.00 76 1006.5
20180721225332 77 156 0.0 0.0 0.00 0.00 0.00 75 1006.6
20180721224831 77 156 0.0 0.0 0.00 0.00 0.00 75 1006.6
20180721224332 77 156 0.0 0.0 0.00 0.00 0.00 74 1006.6
20180721223831 77 157 0.0 0.0 0.00 0.00 0.00 74 1006.6
20180721223330 77 157 0.0 0.0 0.00 0.00 0.00 73 1006.6
20180721222829 77 156 0.0 3.0 0.00 0.00 0.00 73 1006.6
20180721222330 78 152 0.0 3.0 0.00 0.00 0.00 73 1006.5
20180721221830 78 138 0.0 3.0 0.00 0.00 0.00 72 1006.5
20180721221329 78 161 0.0 3.0 0.00 0.00 0.00 72 1006.6
20180721220831 78 145 0.0 0.0 0.00 0.00 0.00 72 1006.6
20180721220332 78 174 0.0 0.0 0.00 0.00 0.00 73 1006.5
20180721215830 78 144 0.0 0.0 0.00 0.00 0.00 73 1006.4
20180721215330 78 143 0.0 0.0 0.00 0.00 0.00 74 1006.4
20180721214828 78 155 0.0 0.0 0.00 0.00 0.00 73 1006.4
20180721214329 78 157 0.0 0.0 0.00 0.00 0.00 74 1006.4
20180721213828 78 163 0.0 0.0 0.00 0.00 0.00 74 1006.5
20180721213327 78 163 0.0 0.0 0.00 0.00 0.00 75 1006.6
20180721212828 78 163 0.0 0.0 0.00 0.00 0.00 75 1006.6
20180721212327 78 190 0.0 0.0 0.00 0.00 0.00 75 1006.6
20180721211827 78 157 0.0 0.0 0.00 0.00 0.00 75 1006.6
20180721211327 77 148 0.0 2.0 0.00 0.00 0.00 75 1006.6
20180721210828 77 152 0.0 2.0 0.00 0.00 0.00 75 1006.5
20180721210329 77 157 0.0 2.0 0.00 0.00 0.00 75 1006.5
20180721205827 77 157 0.0 3.0 0.00 0.00 0.00 76 1006.5
20180721205325 77 164 0.0 3.0 0.00 0.00 0.00 76 1006.5
20180721204825 77 144 0.0 3.0 0.00 0.00 0.00 76 1006.6
20180721204327 77 142 0.0 3.0 0.00 0.00 0.00 76 1006.6
20180721203824 77 151 0.0 3.0 0.00 0.00 0.00 76 1006.7
20180721203323 76 153 0.0 2.0 0.00 0.00 0.00 77 1006.7
20180721202824 76 194 0.0 2.0 0.00 0.00 0.00 77 1006.7
20180721202323 75 130 0.0 2.0 0.00 0.00 0.00 77 1006.7
20180721201823 75 155 0.0 2.0 0.00 0.00 0.00 77 1006.8
20180721201323 75 130 0.0 0.0 0.00 0.00 0.00 77 1006.8
20180721200823 75 154 0.0 0.0 0.00 0.00 0.00 77 1006.8
20180721200324 75 157 0.0 0.0 0.00 0.00 0.00 77 1006.7
20180721195823 75 142 0.0 1.0 0.00 0.00 0.00 77 1006.8
20180721195321 75 153 0.0 1.0 0.00 0.00 0.00 77 1006.8
20180721194823 75 196 0.0 1.0 0.00 0.00 0.00 78 1006.8
20180721194321 74 152 0.0 4.0 0.00 0.00 0.00 78 1006.7
20180721193815 74 156 0.0 4.0 0.00 0.00 0.00 77 1006.7
20180721193316 74 169 0.0 4.0 0.00 0.00 0.00 78 1006.8
20180721192813 74 213 0.0 3.0 0.00 0.00 0.00 78 1006.8
20180721192315 74 138 0.0 2.0 0.00 0.00 0.00 78 1006.8
20180721191813 74 159 0.0 2.0 0.00 0.00 0.00 78 1007.0
20180721191314 74 144 0.0 2.0 0.00 0.00 0.00 78 1007.0
20180721190813 73 163 0.0 0.0 0.00 0.00 0.00 78 1006.9
20180721190314 73 147 0.0 3.0 0.00 0.00 0.00 78 1007.0
20180721185813 73 155 0.0 3.0 0.00 0.00 0.00 78 1007.1
20180721185312 73 173 0.0 3.0 0.00 0.00 0.00 78 1007.2
20180721184813 73 154 0.0 3.0 0.00 0.00 0.00 78 1007.2
20180721184313 72 154 0.0 0.0 0.00 0.00 0.00 78 1007.3
20180721183811 72 143 0.0 0.0 0.00 0.00 0.00 77 1007.3
20180721183312 71 153 0.0 0.0 0.00 0.00 0.00 77 1007.4
20180721182812 71 175 0.0 0.0 0.00 0.00 0.00 77 1007.3
20180721182311 71 141 0.0 0.0 0.00 0.00 0.00 77 1007.4
20180721181812 71 146 0.0 2.0 0.00 0.01 0.00 77 1007.4
20180721181311 71 174 0.0 2.0 0.00 0.01 0.00 77 1007.5
20180721180812 70 167 0.0 2.0 0.00 0.01 0.00 77 1007.5
20180721180310 70 152 0.0 2.0 0.00 0.01 0.00 77 1007.5
20180721175810 70 141 0.0 3.0 0.00 0.01 0.00 77 1007.7
20180721175306 70 139 0.0 3.0 0.00 0.01 0.00 77 1007.5
20180721174806 71 152 0.0 2.0 0.00 0.01 0.00 77 1007.4
20180721174306 71 154 0.0 2.0 0.00 0.01 0.00 76 1007.4
20180721173806 71 161 0.0 2.0 0.00 0.01 0.00 76 1007.4
20180721173305 70 150 0.0 2.0 0.00 0.01 0.00 76 1007.5
20180721172801 70 148 0.0 4.0 0.00 0.02 0.00 76 1007.4
20180721172303 70 136 0.0 4.0 0.00 0.02 0.00 75 1007.5
20180721171801 70 186 0.0 4.0 0.00 0.02 0.00 74 1007.5
20180721171259 70 155 0.0 4.0 0.00 0.02 0.00 74 1007.7
20180721170800 70 144 0.0 3.0 0.00 0.02 0.00 73 1007.7
20180721170259 69 140 0.0 3.0 0.00 0.02 0.00 73 1007.7
20180721165801 69 140 0.0 3.0 0.00 0.02 0.00 75 1007.8
20180721165259 70 167 0.0 2.0 0.00 0.02 0.00 75 1007.8
20180721164757 70 136 0.0 1.0 0.00 0.02 0.00 74 1007.8
20180721164259 70 183 0.0 4.0 0.00 0.02 0.00 75 1007.8
20180721163800 70 150 0.0 4.0 0.00 0.02 0.00 76 1007.8
20180721163258 70 161 0.0 4.0 0.00 0.02 0.00 76 1007.8
20180721162757 70 148 0.0 4.0 0.00 0.02 0.00 76 1007.8
20180721162258 70 154 0.0 4.0 0.00 0.02 0.00 77 1007.9
20180721161758 70 136 0.0 4.0 0.00 0.02 0.00 77 1007.9
20180721161259 70 170 0.0 3.0 0.00 0.02 0.00 77 1007.9
20180721160755 70 161 1.0 3.0 0.00 0.02 0.00 77 1007.8
20180721160255 70 152 0.0 3.0 0.00 0.02 0.00 78 1007.8
20180721155757 70 145 0.0 3.0 0.00 0.02 0.00 78 1007.8
20180721155255 70 120 0.0 2.0 0.00 0.02 0.00 77 1007.8
20180721154755 70 158 0.0 2.0 0.00 0.02 0.00 77 1007.8
20180721154253 70 150 0.0 2.0 0.00 0.02 0.00 78 1007.8
20180721153755 71 147 0.0 5.0 0.00 0.02 0.00 78 1007.7
20180721153253 71 160 0.0 5.0 0.00 0.02 0.00 78 1007.7
20180721152754 71 157 0.0 5.0 0.00 0.02 0.00 78 1007.7
20180721152254 71 159 0.0 5.0 0.00 0.02 0.00 78 1007.7
20180721151751 71 163 0.0 5.0 0.00 0.02 0.00 78 1007.7
20180721151253 71 173 0.0 5.0 0.00 0.02 0.00 78 1007.7
20180721150752 71 128 0.0 5.0 0.00 0.02 0.00 78 1007.5
20180721150300 71 124 0.0 4.0 0.00 0.02 0.00 78 1007.5
20180721145752 71 160 0.0 4.0 0.00 0.02 0.00 78 1007.5
20180721145251 70 198 0.0 1.0 0.00 0.02 0.00 78 1007.5
20180721144751 70 159 0.0 0.0 0.00 0.02 0.00 77 1007.5
20180721144252 70 166 0.0 0.0 0.00 0.02 0.00 77 1007.4
20180721143751 69 182 0.0 0.0 0.00 0.02 0.00 77 1007.5
20180721143252 69 159 0.0 0.0 0.00 0.02 0.00 77 1007.5
20180721142750 69 137 0.0 0.0 0.00 0.02 0.00 77 1007.5
20180721142249 69 112 0.0 0.0 0.00 0.02 0.00 77 1007.5
20180721141749 69 153 0.0 0.0 0.00 0.02 0.00 76 1007.5
20180721141250 69 155 0.0 0.0 0.00 0.02 0.00 76 1007.5
20180721140749 69 139 0.0 0.0 0.00 0.02 0.00 76 1007.5
20180721140250 69 160 0.0 0.0 0.00 0.02 0.00 76 1007.5
20180721135749 69 161 0.0 0.0 0.00 0.02 0.00 76 1007.5
20180721135250 69 150 0.0 0.0 0.00 0.02 0.00 76 1007.7
20180721134749 69 159 0.0 0.0 0.00 0.02 0.00 76 1007.7
20180721134248 69 211 0.0 0.0 0.00 0.02 0.00 76 1007.5
20180721133748 69 160 0.0 0.0 0.00 0.02 0.00 76 1007.7
20180721133248 69 157 0.0 0.0 0.00 0.02 0.00 76 1007.5
20180721132747 68 162 0.0 0.0 0.00 0.02 0.00 76 1007.7
20180721132247 68 155 0.0 0.0 0.00 0.02 0.00 76 1007.7
20180721131747 68 158 0.0 0.0 0.00 0.02 0.00 76 1007.7
20180721131247 68 142 0.0 0.0 0.00 0.02 0.00 76 1007.7
20180721130749 68 157 0.0 0.0 0.00 0.02 0.00 75 1007.5
20180721130248 68 153 0.0 0.0 0.00 0.02 0.00 76 1007.5
20180721125746 68 142 0.0 0.0 0.00 0.02 0.00 76 1007.4
20180721125246 68 140 0.0 0.0 0.00 0.02 0.00 75 1007.4
20180721124747 68 181 0.0 0.0 0.00 0.02 0.00 76 1007.3
20180721124246 68 150 0.0 0.0 0.00 0.02 0.00 75 1007.4
20180721123746 68 190 0.0 0.0 0.00 0.02 0.00 76 1007.4
20180721123245 68 147 0.0 0.0 0.00 0.02 0.00 76 1007.4
20180721122745 68 164 0.0 0.0 0.00 0.02 0.00 76 1007.3
20180721122245 68 141 0.0 0.0 0.00 0.02 0.00 76 1007.2
20180721121743 68 155 0.0 0.0 0.00 0.02 0.00 77 1007.2
20180721121244 68 148 0.0 0.0 0.00 0.02 0.00 77 1007.2
20180721120743 68 150 0.0 0.0 0.00 0.02 0.00 77 1007.2
20180721120243 68 154 0.0 0.0 0.00 0.02 0.00 77 1007.1
20180721115743 68 167 0.0 0.0 0.00 0.02 0.00 77 1007.1
20180721115244 68 140 0.0 0.0 0.00 0.02 0.00 77 1007.1
20180721114743 68 128 0.0 0.0 0.00 0.02 0.00 77 1007.2
20180721114242 68 153 0.0 0.0 0.00 0.02 0.00 78 1007.0
20180721113742 68 168 0.0 0.0 0.00 0.02 0.00 78 1007.0
20180721113242 68 144 0.0 0.0 0.00 0.02 0.00 78 1007.0
20180721112743 68 150 0.0 0.0 0.00 0.02 0.00 78 1007.0
20180721112241 68 159 0.0 0.0 0.00 0.02 0.00 78 1006.9
20180721111743 68 162 0.0 0.0 0.00 0.02 0.00 78 1006.9
20180721111241 68 178 0.0 0.0 0.00 0.02 0.00 78 1006.9
20180721110741 68 141 0.0 0.0 0.00 0.02 0.00 78 1006.8
20180721110243 68 165 0.0 0.0 0.00 0.02 0.00 78 1006.9
20180721105741 68 153 0.0 0.0 0.00 0.02 0.00 78 1006.8
20180721105241 68 133 0.0 0.0 0.00 0.02 0.00 78 1006.8
20180721104741 69 174 0.0 8.0 0.00 0.02 0.00 79 1006.8
20180721104241 69 151 0.0 8.0 0.00 0.02 0.00 79 1006.8
20180721103741 69 161 1.0 8.0 0.00 0.02 0.00 79 1006.9
20180721103239 69 171 0.0 8.0 0.00 0.02 0.00 79 1006.8
20180721102740 69 162 0.0 6.0 0.00 0.02 0.00 79 1006.8
20180721102240 69 153 0.0 5.0 0.00 0.02 0.00 79 1006.9
20180721101740 69 189 0.0 5.0 0.00 0.02 0.00 79 1006.8
20180721101239 69 164 0.0 3.0 0.00 0.02 0.00 79 1006.7
20180721100739 69 155 0.0 0.0 0.00 0.02 0.00 79 1006.7
20180721100238 69 140 0.0 0.0 0.00 0.02 0.00 79 1006.6
20180721095740 69 128 0.0 0.0 0.00 0.02 0.00 79 1006.6
20180721095238 69 153 0.0 0.0 0.00 0.02 0.00 79 1006.6
20180721094738 69 153 0.0 0.0 0.00 0.02 0.00 79 1006.5
20180721094242 69 153 0.0 0.0 0.00 0.02 0.00 79 1006.6
20180721094237 69 140 0.0 0.0 0.00 0.02 0.00 79 1006.6
20180721093742 69 153 0.0 0.0 0.00 0.02 0.00 79 1006.6
20180721093238 69 158 0.0 0.0 0.00 0.02 0.00 79 1006.7
20180721092739 69 157 0.0 0.0 0.00 0.02 0.00 79 1006.6
20180721092239 69 151 0.0 0.0 0.00 0.02 0.00 79 1006.6
20180721091737 69 120 0.0 0.0 0.00 0.02 0.00 79 1006.7
20180721091238 69 154 0.0 0.0 0.00 0.02 0.00 79 1006.7
20180721090738 69 146 0.0 0.0 0.00 0.02 0.00 79 1006.8
20180721090237 69 146 0.0 0.0 0.00 0.02 0.00 79 1006.8
20180721085735 70 171 0.0 0.0 0.00 0.02 0.00 79 1006.8
20180721085234 70 156 0.0 0.0 0.00 0.02 0.00 79 1006.8
20180721084736 70 157 0.0 0.0 0.00 0.02 0.00 79 1006.8
20180721084235 70 147 0.0 0.0 0.00 0.02 0.00 79 1006.8
20180721083736 70 155 0.0 0.0 0.00 0.02 0.00 79 1007.0
20180721083236 70 158 0.0 0.0 0.00 0.02 0.00 79 1006.9
20180721082737 71 174 0.0 0.0 0.00 0.02 0.00 78 1007.0
20180721082236 71 168 0.0 0.0 0.00 0.02 0.00 78 1007.1
20180721081733 71 185 0.0 0.0 0.00 0.02 0.00 78 1007.1
20180721081234 71 128 0.0 0.0 0.00 0.02 0.00 78 1007.0
20180721080733 71 149 0.0 0.0 0.00 0.02 0.00 78 1007.1
20180721080232 71 126 0.0 0.0 0.00 0.02 0.00 78 1007.1
20180721075734 71 152 0.0 0.0 0.00 0.02 0.00 78 1007.1
20180721075232 71 154 0.0 0.0 0.00 0.02 0.00 78 1007.1
20180721074734 71 134 0.0 0.0 0.00 0.02 0.00 78 1007.1
20180721074233 71 148 0.0 0.0 0.00 0.02 0.00 78 1007.1
20180721073733 71 157 0.0 0.0 0.00 0.02 0.00 78 1007.0
20180721073234 71 151 0.0 0.0 0.00 0.02 0.00 78 1007.1
20180721072732 71 156 0.0 0.0 0.00 0.02 0.00 79 1007.1
20180721072233 71 158 0.0 0.0 0.00 0.02 0.00 78 1007.1
20180721071731 71 157 0.0 0.0 0.00 0.02 0.00 78 1007.2
20180721071231 71 167 0.0 0.0 0.00 0.02 0.00 79 1007.3
20180721070731 71 171 0.0 0.0 0.00 0.02 0.00 78 1007.3
20180721070232 71 155 0.0 0.0 0.00 0.02 0.00 78 1007.3
20180721065733 71 153 0.0 0.0 0.00 0.02 0.00 78 1007.3
20180721065231 71 159 0.0 0.0 0.00 0.02 0.00 78 1007.4